createdAt,value
2023-02-16T00:00:28.288Z,13.60
2023-02-16T00:02:55.061Z,12.43
2023-02-16T00:05:26.136Z,13.57
2023-02-16T00:07:54.011Z,13.70
2023-02-16T00:10:20.837Z,13.00
2023-02-16T00:13:05.984Z,12.17
2023-02-16T00:15:33.130Z,14.10
2023-02-16T00:18:02.749Z,12.60
2023-02-16T00:20:32.039Z,13.47
2023-02-16T00:22:58.792Z,14.33
2023-02-16T00:25:25.533Z,13.17
2023-02-16T00:27:52.518Z,13.50
2023-02-16T00:30:21.568Z,12.10
2023-02-16T00:32:48.235Z,12.40
2023-02-16T00:35:19.965Z,13.60
2023-02-16T00:37:48.169Z,13.40
2023-02-16T00:40:16.849Z,13.17
2023-02-16T00:42:46.154Z,13.03
2023-02-16T00:45:20.079Z,13.70
2023-02-16T00:47:50.979Z,11.70
2023-02-16T00:50:26.106Z,14.87
2023-02-16T00:52:53.100Z,12.97
2023-02-16T00:55:21.894Z,14.03
2023-02-16T00:57:52.264Z,13.53
2023-02-16T01:00:28.523Z,14.97
2023-02-16T01:02:59.188Z,17.53
2023-02-16T01:05:26.135Z,15.10
2023-02-16T01:08:11.426Z,12.33
2023-02-16T01:10:57.759Z,12.77
2023-02-16T01:13:27.010Z,11.30
2023-02-16T01:15:53.693Z,12.67
2023-02-16T01:18:21.206Z,12.70
2023-02-16T01:20:48.502Z,13.00
2023-02-16T01:23:15.189Z,10.87
2023-02-16T01:25:42.303Z,9.93
2023-02-16T01:28:23.656Z,8.70
2023-02-16T01:30:51.897Z,10.47
2023-02-16T01:33:19.679Z,9.80
2023-02-16T01:35:46.730Z,9.77
2023-02-16T01:38:19.310Z,10.57
2023-02-16T01:40:55.583Z,9.77
2023-02-16T01:43:48.195Z,9.60
2023-02-16T01:46:21.204Z,9.90
2023-02-16T01:48:48.059Z,9.73
2023-02-16T01:51:38.045Z,9.40
2023-02-16T01:54:27.376Z,8.50
2023-02-16T01:57:29.202Z,7.37
2023-02-16T01:59:55.902Z,9.40
2023-02-16T02:02:50.786Z,8.87
2023-02-16T02:05:37.805Z,8.30
2023-02-16T02:08:19.583Z,7.73
2023-02-16T02:10:51.873Z,7.70
2023-02-16T02:13:42.847Z,9.40
2023-02-16T02:16:10.736Z,8.83
2023-02-16T02:18:37.687Z,8.23
2023-02-16T02:21:25.902Z,8.93
2023-02-16T02:24:16.245Z,8.97
2023-02-16T02:26:54.840Z,8.07
2023-02-16T02:29:21.378Z,8.40
2023-02-16T02:31:55.941Z,8.47
2023-02-16T02:34:44.236Z,9.13
2023-02-16T02:37:26.804Z,9.30
2023-02-16T02:40:17.021Z,8.37
2023-02-16T02:43:25.234Z,8.27
2023-02-16T02:45:58.876Z,8.10
2023-02-16T02:48:33.809Z,7.83
2023-02-16T02:51:23.175Z,8.33
2023-02-16T02:54:14.660Z,9.07
2023-02-16T02:57:08.899Z,6.80
2023-02-16T02:59:58.326Z,8.03
2023-02-16T03:02:26.316Z,6.83
2023-02-16T03:04:57.006Z,7.57
2023-02-16T03:07:45.126Z,9.17
2023-02-16T03:10:30.112Z,7.77
2023-02-16T03:12:57.943Z,7.50
2023-02-16T03:15:25.780Z,9.77
2023-02-16T03:18:13.986Z,8.07
2023-02-16T03:21:02.561Z,9.97
2023-02-16T03:23:48.447Z,7.20
2023-02-16T03:26:34.564Z,7.17
2023-02-16T03:29:21.748Z,7.13
2023-02-16T03:31:49.887Z,8.97
2023-02-16T03:34:18.357Z,7.53
2023-02-16T03:36:48.988Z,7.93
2023-02-16T03:39:16.386Z,10.33
2023-02-16T03:41:50.259Z,8.97
2023-02-16T03:44:17.612Z,8.10
2023-02-16T03:46:44.795Z,8.03
2023-02-16T03:49:11.809Z,7.67
2023-02-16T03:51:38.746Z,8.40
2023-02-16T03:54:05.386Z,7.40
2023-02-16T03:56:32.050Z,7.37
2023-02-16T03:58:58.675Z,7.53
2023-02-16T04:01:25.953Z,8.03
2023-02-16T04:03:52.676Z,7.43
2023-02-16T04:06:19.562Z,7.93
2023-02-16T04:08:46.368Z,7.13
2023-02-16T04:11:31.599Z,6.70
2023-02-16T04:13:58.266Z,7.27
2023-02-16T04:16:24.961Z,9.60
2023-02-16T04:18:51.570Z,6.60
2023-02-16T04:21:18.208Z,6.50
2023-02-16T04:23:44.976Z,7.83
2023-02-16T04:26:11.632Z,8.10
2023-02-16T04:28:38.199Z,6.70
2023-02-16T04:31:05.390Z,7.17
2023-02-16T04:33:32.244Z,6.73
2023-02-16T04:35:58.821Z,9.73
2023-02-16T04:38:26.177Z,9.50
2023-02-16T04:40:52.842Z,8.80
2023-02-16T04:43:19.444Z,10.20
2023-02-16T04:45:46.204Z,8.30
2023-02-16T04:48:12.830Z,9.83
2023-02-16T04:50:39.447Z,7.13
2023-02-16T04:53:07.283Z,8.97
2023-02-16T04:55:33.879Z,7.80
2023-02-16T04:58:00.571Z,6.17
2023-02-16T05:00:27.199Z,8.77
2023-02-16T05:02:53.868Z,7.90
2023-02-16T05:05:20.479Z,7.47
2023-02-16T05:07:47.124Z,7.63
2023-02-16T05:10:13.784Z,6.87
2023-02-16T05:12:59.071Z,6.20
2023-02-16T05:15:25.704Z,9.93
2023-02-16T05:17:52.270Z,8.57
2023-02-16T05:20:18.939Z,9.60
2023-02-16T05:22:46.429Z,10.33
2023-02-16T05:25:13.196Z,9.67
2023-02-16T05:27:39.861Z,9.70
2023-02-16T05:30:06.988Z,9.80
2023-02-16T05:32:33.628Z,10.00
2023-02-16T05:35:00.349Z,8.80
2023-02-16T05:37:27.089Z,10.00
2023-02-16T05:39:53.718Z,8.87
2023-02-16T05:42:20.334Z,10.20
2023-02-16T05:44:46.934Z,9.43
2023-02-16T05:47:13.701Z,11.33
2023-02-16T05:49:40.349Z,11.00
2023-02-16T05:52:06.953Z,11.40
2023-02-16T05:54:33.616Z,12.60
2023-02-16T05:57:00.152Z,10.30
2023-02-16T05:59:26.833Z,11.47
2023-02-16T06:01:54.088Z,13.37
2023-02-16T06:04:21.817Z,12.10
2023-02-16T06:06:48.828Z,14.20
2023-02-16T06:09:15.789Z,16.43
2023-02-16T06:11:42.909Z,13.17
2023-02-16T06:14:13.326Z,14.47
2023-02-16T06:16:42.475Z,12.87
2023-02-16T06:19:10.170Z,12.10
2023-02-16T06:21:38.944Z,13.47
2023-02-16T06:24:06.511Z,12.50
2023-02-16T06:26:33.357Z,11.13
2023-02-16T06:29:00.117Z,11.93
2023-02-16T06:31:27.124Z,11.57
2023-02-16T06:33:54.698Z,11.63
2023-02-16T06:36:21.312Z,13.83
2023-02-16T06:38:47.942Z,12.83
2023-02-16T06:41:31.282Z,13.83
2023-02-16T06:44:03.501Z,14.83
2023-02-16T06:46:30.485Z,14.37
2023-02-16T06:48:57.806Z,14.93
2023-02-16T06:51:24.472Z,14.57
2023-02-16T06:53:51.099Z,13.63
2023-02-16T06:56:17.738Z,14.10
2023-02-16T06:58:44.351Z,14.97
2023-02-16T07:01:11.309Z,13.50
2023-02-16T07:03:38.196Z,11.97
2023-02-16T07:06:05.026Z,14.70
2023-02-16T07:08:31.808Z,13.13
2023-02-16T07:10:58.389Z,13.80
2023-02-16T07:13:24.973Z,12.27
2023-02-16T07:15:51.716Z,14.33
2023-02-16T07:18:18.391Z,16.33
2023-02-16T07:20:44.987Z,13.17
2023-02-16T07:23:11.606Z,16.33
2023-02-16T07:25:38.331Z,15.23
2023-02-16T07:28:04.951Z,14.47
2023-02-16T07:30:31.673Z,13.33
2023-02-16T07:32:58.368Z,14.20
2023-02-16T07:35:25.393Z,12.53
2023-02-16T07:37:52.093Z,14.27
2023-02-16T07:40:18.791Z,12.33
2023-02-16T07:42:45.392Z,12.60
2023-02-16T07:45:12.030Z,12.47
2023-02-16T07:47:38.634Z,14.80
2023-02-16T07:50:05.800Z,14.60
2023-02-16T07:52:32.490Z,16.07
2023-02-16T07:54:59.280Z,13.87
2023-02-16T07:57:27.343Z,13.93
2023-02-16T07:59:55.107Z,14.93
2023-02-16T08:02:23.061Z,17.47
2023-02-16T08:04:52.843Z,16.97
2023-02-16T08:07:20.413Z,16.17
2023-02-16T08:09:47.306Z,17.70
2023-02-16T08:12:15.635Z,18.47
2023-02-16T08:14:42.812Z,15.67
2023-02-16T08:17:10.338Z,17.87
2023-02-16T08:19:40.344Z,20.67
2023-02-16T08:22:08.654Z,20.27
2023-02-16T08:24:36.114Z,20.63
2023-02-16T08:27:04.426Z,21.97
2023-02-16T08:29:32.000Z,19.13
2023-02-16T08:31:59.428Z,19.03
2023-02-16T08:34:26.768Z,19.37
2023-02-16T08:36:57.699Z,19.20
2023-02-16T08:39:26.968Z,17.87
2023-02-16T08:41:54.889Z,15.20
2023-02-16T08:44:23.923Z,15.20
2023-02-16T08:46:52.357Z,18.00
2023-02-16T08:49:22.109Z,17.07
2023-02-16T08:51:52.437Z,16.07
2023-02-16T08:54:29.978Z,14.13
2023-02-16T08:56:59.039Z,15.30
2023-02-16T08:59:28.902Z,18.63
2023-02-16T09:01:57.199Z,12.40
2023-02-16T09:04:25.587Z,14.40
2023-02-16T09:06:52.584Z,14.17
2023-02-16T09:09:19.770Z,15.60
2023-02-16T09:11:46.764Z,17.33
2023-02-16T09:14:13.632Z,15.63
2023-02-16T09:16:45.545Z,16.77
2023-02-16T09:19:15.090Z,18.37
2023-02-16T09:21:42.345Z,16.87
2023-02-16T09:24:09.542Z,16.60
2023-02-16T09:26:39.015Z,17.83
2023-02-16T09:29:07.101Z,17.40
2023-02-16T09:31:35.931Z,17.83
2023-02-16T09:34:14.219Z,18.17
2023-02-16T09:36:40.797Z,18.47
2023-02-16T09:39:08.181Z,18.13
2023-02-16T09:41:40.579Z,17.63
2023-02-16T09:44:18.983Z,18.13
2023-02-16T09:46:47.086Z,17.20
2023-02-16T09:49:46.437Z,16.77
2023-02-16T09:52:43.590Z,16.00
2023-02-16T09:55:18.535Z,20.47
2023-02-16T09:58:08.212Z,20.10
2023-02-16T10:00:35.899Z,22.43
2023-02-16T10:03:21.266Z,20.07
2023-02-16T10:05:56.683Z,26.73
2023-02-16T10:08:31.415Z,22.47
2023-02-16T10:11:27.726Z,24.00
2023-02-16T10:13:57.493Z,24.70
2023-02-16T10:16:32.259Z,21.43
2023-02-16T10:19:02.992Z,25.43
2023-02-16T10:21:31.655Z,26.37
2023-02-16T10:24:12.296Z,26.40
2023-02-16T10:26:44.376Z,27.47
2023-02-16T10:29:17.074Z,24.57
2023-02-16T10:31:52.494Z,27.30
2023-02-16T10:34:47.709Z,25.07
2023-02-16T10:37:42.783Z,22.93
2023-02-16T10:40:37.382Z,24.90
2023-02-16T10:43:37.670Z,23.90
2023-02-16T10:46:06.060Z,24.23
2023-02-16T10:48:33.427Z,22.47
2023-02-16T10:51:12.742Z,24.33
2023-02-16T10:53:52.999Z,24.33
2023-02-16T10:56:50.817Z,23.73
2023-02-16T10:59:23.395Z,23.13
2023-02-16T11:01:57.617Z,26.10
2023-02-16T11:04:31.666Z,22.70
2023-02-16T11:07:12.792Z,24.43
2023-02-16T11:09:41.318Z,24.40
2023-02-16T11:12:27.335Z,22.73
2023-02-16T11:15:19.916Z,21.40
2023-02-16T11:17:54.698Z,24.07
2023-02-16T11:20:42.304Z,24.13
2023-02-16T11:23:17.813Z,22.47
2023-02-16T11:26:00.178Z,23.37
2023-02-16T11:28:32.423Z,22.23
2023-02-16T11:31:05.267Z,22.63
2023-02-16T11:33:34.837Z,23.87
2023-02-16T11:36:05.358Z,22.77
2023-02-16T11:38:35.740Z,24.53
2023-02-16T11:41:06.418Z,21.30
2023-02-16T11:43:37.683Z,24.37
2023-02-16T11:46:14.868Z,22.87
2023-02-16T11:48:42.930Z,22.30
2023-02-16T11:51:11.618Z,23.63
2023-02-16T11:53:43.586Z,21.53
2023-02-16T11:56:10.759Z,22.20
2023-02-16T11:58:37.896Z,22.23
2023-02-16T12:01:28.411Z,22.33
2023-02-16T12:04:33.760Z,18.37
2023-02-16T12:07:40.398Z,20.93
2023-02-16T12:10:12.458Z,20.57
2023-02-16T12:12:57.780Z,21.63
2023-02-16T12:15:30.353Z,19.90
2023-02-16T12:18:03.371Z,22.17
2023-02-16T12:20:41.863Z,21.07
2023-02-16T12:23:52.529Z,20.87
2023-02-16T12:26:39.249Z,20.23
2023-02-16T12:29:33.930Z,21.13
2023-02-16T12:32:12.934Z,18.30
2023-02-16T12:34:51.243Z,21.13
2023-02-16T12:37:26.888Z,21.77
2023-02-16T12:40:16.226Z,20.00
2023-02-16T12:42:46.091Z,19.73
2023-02-16T12:45:31.841Z,18.50
2023-02-16T12:48:05.618Z,18.70
2023-02-16T12:50:35.196Z,19.17
2023-02-16T12:53:07.298Z,17.70
2023-02-16T12:55:51.129Z,18.13
2023-02-16T12:58:23.922Z,18.93
2023-02-16T13:01:00.148Z,18.50
2023-02-16T13:03:52.973Z,17.50
2023-02-16T13:06:44.063Z,18.53
2023-02-16T13:09:26.067Z,19.97
2023-02-16T13:12:12.474Z,17.47
2023-02-16T13:14:44.010Z,19.43
2023-02-16T13:17:31.176Z,17.87
2023-02-16T13:19:57.911Z,17.37
2023-02-16T13:22:50.956Z,17.00
2023-02-16T13:25:29.829Z,15.60
2023-02-16T13:28:15.228Z,17.10
2023-02-16T13:31:12.606Z,17.07
2023-02-16T13:33:39.279Z,16.43
2023-02-16T13:36:29.236Z,16.97
2023-02-16T13:39:13.842Z,17.30
2023-02-16T13:42:05.395Z,16.70
2023-02-16T13:44:37.052Z,17.57
2023-02-16T13:47:05.238Z,17.17
2023-02-16T13:49:44.915Z,16.83
2023-02-16T13:52:31.043Z,18.10
2023-02-16T13:55:01.710Z,18.77
2023-02-16T13:57:50.766Z,17.83
2023-02-16T14:00:29.186Z,17.70
2023-02-16T14:03:00.284Z,18.50
2023-02-16T14:05:31.274Z,19.07
2023-02-16T14:08:18.945Z,16.53
2023-02-16T14:10:55.175Z,18.93
2023-02-16T14:13:37.050Z,18.87
2023-02-16T14:16:11.524Z,18.10
2023-02-16T14:18:54.380Z,16.77
2023-02-16T14:21:45.480Z,17.37
2023-02-16T14:24:26.112Z,17.33
2023-02-16T14:26:59.168Z,17.23
2023-02-16T14:29:35.123Z,17.57
2023-02-16T14:32:22.504Z,19.20
2023-02-16T14:34:57.542Z,16.73
2023-02-16T14:37:39.413Z,17.93
2023-02-16T14:40:18.237Z,18.43
2023-02-16T14:42:57.195Z,17.50
2023-02-16T14:45:32.584Z,17.63
2023-02-16T14:48:12.246Z,16.80
2023-02-16T14:51:10.249Z,17.63
2023-02-16T14:53:57.921Z,16.90
2023-02-16T14:56:45.370Z,16.73
2023-02-16T14:59:24.595Z,18.73
2023-02-16T15:01:51.612Z,19.07
2023-02-16T15:04:32.206Z,17.17
2023-02-16T15:07:06.233Z,17.80
2023-02-16T15:09:34.928Z,18.60
2023-02-16T15:12:23.500Z,18.63
2023-02-16T15:14:54.367Z,19.63
2023-02-16T15:17:47.278Z,20.10
2023-02-16T15:20:24.989Z,20.40
2023-02-16T15:22:54.366Z,19.37
2023-02-16T15:25:36.271Z,19.70
2023-02-16T15:28:16.765Z,18.87
2023-02-16T15:30:48.395Z,19.10
2023-02-16T15:33:24.163Z,17.93
2023-02-16T15:36:01.002Z,18.37
2023-02-16T15:38:31.879Z,19.07
2023-02-16T15:41:30.211Z,19.97
2023-02-16T15:43:57.955Z,18.23
2023-02-16T15:46:42.077Z,19.83
2023-02-16T15:49:14.853Z,18.83
2023-02-16T15:51:43.258Z,20.17
2023-02-16T15:54:30.786Z,18.20
2023-02-16T15:57:00.117Z,18.07
2023-02-16T15:59:30.384Z,19.80
2023-02-16T16:02:19.247Z,16.77
2023-02-16T16:04:49.535Z,17.03
2023-02-16T16:07:22.192Z,16.47
2023-02-16T16:09:49.017Z,16.03
2023-02-16T16:12:18.982Z,17.43
2023-02-16T16:14:55.459Z,16.43
2023-02-16T16:17:28.251Z,14.07
2023-02-16T16:19:55.487Z,14.13
2023-02-16T16:22:36.557Z,13.77
2023-02-16T16:25:28.792Z,13.13
2023-02-16T16:27:56.307Z,11.83
2023-02-16T16:30:22.912Z,14.67
2023-02-16T16:33:02.429Z,11.57
2023-02-16T16:35:39.755Z,14.07
2023-02-16T16:38:20.469Z,13.80
2023-02-16T16:40:51.955Z,7.23
2023-02-16T16:43:19.897Z,7.07
2023-02-16T16:45:49.490Z,7.93
2023-02-16T16:48:23.845Z,7.17
2023-02-16T16:51:07.776Z,7.37
2023-02-16T16:53:52.941Z,7.27
2023-02-16T16:56:20.886Z,8.77
2023-02-16T16:58:52.088Z,5.53
2023-02-16T17:01:20.798Z,6.77
2023-02-16T17:03:47.934Z,7.30
2023-02-16T17:06:14.716Z,8.33
2023-02-16T17:08:42.020Z,8.90
2023-02-16T17:11:23.328Z,10.70
2023-02-16T17:13:50.305Z,6.77
2023-02-16T17:16:20.831Z,13.80
2023-02-16T17:18:47.522Z,28.63
2023-02-16T17:21:14.873Z,14.83
2023-02-16T17:23:50.401Z,11.13
2023-02-16T17:26:19.364Z,8.73
2023-02-16T17:28:45.975Z,11.57
2023-02-16T17:31:12.650Z,9.40
2023-02-16T17:33:39.377Z,6.83
2023-02-16T17:36:07.278Z,8.00
2023-02-16T17:38:34.414Z,9.27
2023-02-16T17:44:47.856Z,6.43
2023-02-16T17:47:16.583Z,6.57
2023-02-16T17:49:43.523Z,7.37
2023-02-16T17:52:11.984Z,7.80
2023-02-16T17:54:39.419Z,9.43
2023-02-16T17:57:06.076Z,7.00
2023-02-16T17:59:34.302Z,6.97
2023-02-16T18:02:01.022Z,7.77
2023-02-16T18:04:27.973Z,6.93
2023-02-16T18:06:54.637Z,7.90
2023-02-16T18:09:24.523Z,7.23
2023-02-16T18:11:51.268Z,6.07
2023-02-16T18:14:18.009Z,6.13
2023-02-16T18:16:44.910Z,6.10
2023-02-16T18:19:15.230Z,7.47
2023-02-16T18:21:42.042Z,8.83
2023-02-16T18:24:08.698Z,9.60
2023-02-16T18:26:35.340Z,7.97
2023-02-16T18:29:01.940Z,8.87
2023-02-16T18:31:28.738Z,9.90
2023-02-16T18:33:55.390Z,8.40
2023-02-16T18:36:22.008Z,12.40
2023-02-16T18:38:48.667Z,13.30
2023-02-16T18:41:15.335Z,11.17
2023-02-16T18:43:41.985Z,11.13
2023-02-16T18:46:09.994Z,31.13
2023-02-16T18:48:36.973Z,20.87
2023-02-16T18:51:06.112Z,17.10
2023-02-16T18:53:32.752Z,13.57
2023-02-16T18:55:59.396Z,10.37
2023-02-16T18:58:26.017Z,11.97
2023-02-16T19:00:52.667Z,10.47
2023-02-16T19:03:19.297Z,11.00
2023-02-16T19:05:46.119Z,11.13
2023-02-16T19:08:12.934Z,10.80
2023-02-16T19:10:39.633Z,10.57
2023-02-16T19:13:07.123Z,11.10
2023-02-16T19:15:35.583Z,14.20
2023-02-16T19:18:02.234Z,12.57
2023-02-16T19:20:29.737Z,11.43
2023-02-16T19:22:56.434Z,12.27
2023-02-16T19:25:23.847Z,8.73
2023-02-16T19:27:50.492Z,10.30
2023-02-16T19:30:17.170Z,10.13
2023-02-16T19:32:43.857Z,9.10
2023-02-16T19:35:11.892Z,8.27
2023-02-16T19:37:38.651Z,14.13
2023-02-16T19:40:10.587Z,14.63
2023-02-16T19:42:38.345Z,12.63
2023-02-16T19:45:05.471Z,12.90
2023-02-16T19:47:32.104Z,10.47
2023-02-16T19:49:58.748Z,12.03
2023-02-16T19:52:25.505Z,15.73
2023-02-16T19:54:52.135Z,14.47
2023-02-16T19:57:18.910Z,14.30
2023-02-16T19:59:45.498Z,11.83
2023-02-16T20:02:14.787Z,14.73
2023-02-16T20:04:42.555Z,11.40
2023-02-16T20:07:09.942Z,12.03
2023-02-16T20:09:37.458Z,10.43
2023-02-16T20:12:05.188Z,7.73
2023-02-16T20:14:31.949Z,6.50
2023-02-16T20:16:58.540Z,7.57
2023-02-16T20:19:25.217Z,6.13
2023-02-16T20:21:51.862Z,10.53
2023-02-16T20:24:18.610Z,7.40
2023-02-16T20:26:49.183Z,7.83
2023-02-16T20:29:20.849Z,8.30
2023-02-16T20:31:51.806Z,8.97
2023-02-16T20:34:19.349Z,8.47
2023-02-16T20:36:46.017Z,8.47
2023-02-16T20:39:12.830Z,9.57
2023-02-16T20:41:40.937Z,6.70
2023-02-16T20:44:07.633Z,7.83
2023-02-16T20:46:34.348Z,8.60
2023-02-16T20:49:01.187Z,8.30
2023-02-16T20:51:28.029Z,8.50
2023-02-16T20:53:54.655Z,9.93
2023-02-16T20:56:26.727Z,7.50
2023-02-16T20:58:55.733Z,8.30
2023-02-16T21:01:37.421Z,8.57
2023-02-16T21:04:05.266Z,7.97
2023-02-16T21:06:32.288Z,8.67
2023-02-16T21:08:59.242Z,9.20
2023-02-16T21:11:26.416Z,12.00
2023-02-16T21:13:53.368Z,14.70
2023-02-16T21:16:20.447Z,14.83
2023-02-16T21:18:47.605Z,12.10
2023-02-16T21:21:15.852Z,14.33
2023-02-16T21:23:48.536Z,14.30
2023-02-16T21:26:16.067Z,13.30
2023-02-16T21:28:42.830Z,10.73
2023-02-16T21:31:21.580Z,10.17
2023-02-16T21:33:48.414Z,11.73
2023-02-16T21:36:21.885Z,13.10
2023-02-16T21:38:48.931Z,12.77
2023-02-16T21:41:24.822Z,11.87
2023-02-16T21:44:03.603Z,8.17
2023-02-16T21:46:36.197Z,11.67
2023-02-16T21:49:04.065Z,11.97
2023-02-16T21:51:33.686Z,9.03
2023-02-16T21:54:00.488Z,12.00
2023-02-16T21:56:32.441Z,13.57
2023-02-16T21:58:59.292Z,10.57
2023-02-16T22:01:31.937Z,9.20
2023-02-16T22:04:00.592Z,11.30
2023-02-16T22:06:42.119Z,9.87
2023-02-16T22:09:14.284Z,10.33
2023-02-16T22:11:41.530Z,9.97
2023-02-16T22:14:08.133Z,8.93
2023-02-16T22:16:36.929Z,11.63
2023-02-16T22:19:07.360Z,12.20
2023-02-16T22:21:38.696Z,10.87
2023-02-16T22:24:06.770Z,11.17
2023-02-16T22:26:35.591Z,10.60
2023-02-16T22:29:06.547Z,9.57
2023-02-16T22:31:33.685Z,12.27
2023-02-16T22:34:03.108Z,9.13
2023-02-16T22:36:30.651Z,7.50
2023-02-16T22:38:57.723Z,8.23
2023-02-16T22:41:25.835Z,11.27
2023-02-16T22:43:54.452Z,11.93
2023-02-16T22:46:22.301Z,10.17
2023-02-16T22:48:48.963Z,9.60
2023-02-16T22:51:17.173Z,8.83
2023-02-16T22:53:44.164Z,9.63
2023-02-16T22:56:13.688Z,8.57
2023-02-16T22:58:40.458Z,8.37
2023-02-16T23:01:16.279Z,7.37
2023-02-16T23:03:45.557Z,7.80
2023-02-16T23:06:14.764Z,7.80
2023-02-16T23:08:42.547Z,7.40
2023-02-16T23:11:09.203Z,7.10
2023-02-16T23:13:36.728Z,8.00
2023-02-16T23:16:09.198Z,6.70
2023-02-16T23:18:36.062Z,6.90
2023-02-16T23:21:28.786Z,8.07
2023-02-16T23:23:56.849Z,8.33
2023-02-16T23:26:25.500Z,8.90
2023-02-16T23:28:54.329Z,9.93
2023-02-16T23:31:22.296Z,9.53
2023-02-16T23:33:49.948Z,11.67
2023-02-16T23:36:17.042Z,9.23
2023-02-16T23:38:44.034Z,11.83
2023-02-16T23:41:15.395Z,9.60
2023-02-16T23:43:42.970Z,8.43
2023-02-16T23:46:10.736Z,7.17
2023-02-16T23:48:38.533Z,7.70
2023-02-16T23:51:05.887Z,8.33
2023-02-16T23:53:32.874Z,8.07
2023-02-16T23:56:05.436Z,9.33
2023-02-16T23:58:41.281Z,8.07
